createdAt,value
2018-05-16T00:01:46.591Z,98780.44
2018-05-16T00:04:16.130Z,98779.66
2018-05-16T00:06:45.741Z,98776.66
2018-05-16T00:09:15.308Z,98776.56
2018-05-16T00:11:44.873Z,98775.72
2018-05-16T00:14:14.476Z,98771.38
2018-05-16T00:16:44.045Z,98769.02
2018-05-16T00:19:13.596Z,98774.46
2018-05-16T00:21:43.184Z,98773.39
2018-05-16T00:24:12.859Z,98778.27
2018-05-16T00:26:42.578Z,98776.69
2018-05-16T00:29:12.243Z,98780.87
2018-05-16T00:31:41.810Z,98777.86
2018-05-16T00:34:11.372Z,98781.86
2018-05-16T00:36:40.970Z,98782.36
2018-05-16T00:39:10.674Z,98785.67
2018-05-16T00:41:40.267Z,98786.86
2018-05-16T00:44:09.837Z,98786.83
2018-05-16T00:46:39.383Z,98786.12
2018-05-16T00:49:09.286Z,98793.19
2018-05-16T00:51:38.955Z,98791.71
2018-05-16T00:54:08.835Z,98798.77
2018-05-16T00:56:38.412Z,98798.39
2018-05-16T00:59:07.981Z,98797.64
2018-05-16T01:01:37.531Z,98800.25
2018-05-16T01:04:07.232Z,98799.05
2018-05-16T01:06:36.852Z,98800.12
2018-05-16T01:09:06.412Z,98795.27
2018-05-16T01:11:35.989Z,98797.56
2018-05-16T01:14:05.688Z,98794.59
2018-05-16T01:16:35.255Z,98796.21
2018-05-16T01:19:04.977Z,98796.72
2018-05-16T01:21:34.521Z,98794.34
2018-05-16T01:24:04.115Z,98791.48
2018-05-16T01:26:33.675Z,98794.27
2018-05-16T01:29:03.250Z,98792.50
2018-05-16T01:31:32.845Z,98791.43
2018-05-16T01:34:02.396Z,98790.26
2018-05-16T01:36:31.992Z,98783.69
2018-05-16T01:39:01.538Z,98786.80
2018-05-16T01:41:31.147Z,98785.05
2018-05-16T01:44:00.773Z,98775.27
2018-05-16T01:46:30.441Z,98776.52
2018-05-16T01:49:11.036Z,98778.97
2018-05-16T01:51:40.620Z,98773.92
2018-05-16T01:54:10.922Z,98764.27
2018-05-16T01:56:40.515Z,98764.75
2018-05-16T01:59:10.087Z,98762.76
2018-05-16T02:01:39.643Z,98754.91
2018-05-16T02:04:09.227Z,98753.58
2018-05-16T02:06:38.922Z,98749.47
2018-05-16T02:09:08.595Z,98748.66
2018-05-16T02:11:37.911Z,98745.67
2018-05-16T02:14:07.446Z,98746.46
2018-05-16T02:16:37.083Z,98742.66
2018-05-16T02:19:06.820Z,98740.30
2018-05-16T02:21:36.415Z,98741.69
2018-05-16T02:24:06.083Z,98740.69
2018-05-16T02:26:35.887Z,98744.17
2018-05-16T02:29:05.454Z,98741.27
2018-05-16T02:31:35.132Z,98749.40
2018-05-16T02:34:04.701Z,98746.27
2018-05-16T02:36:34.269Z,98749.77
2018-05-16T02:39:03.627Z,98747.72
2018-05-16T02:41:33.222Z,98755.17
2018-05-16T02:44:02.847Z,98753.70
2018-05-16T02:46:32.428Z,98753.21
2018-05-16T02:49:02.319Z,98756.58
2018-05-16T02:51:32.171Z,98758.47
2018-05-16T02:54:02.008Z,98758.17
2018-05-16T02:56:31.686Z,98756.69
2018-05-16T02:59:01.536Z,98760.10
2018-05-16T03:01:31.429Z,98754.28
2018-05-16T03:04:00.996Z,98755.84
2018-05-16T03:06:30.725Z,98754.23
2018-05-16T03:09:00.707Z,98750.02
2018-05-16T03:11:30.556Z,98753.22
2018-05-16T03:14:00.409Z,98753.08
2018-05-16T03:16:30.435Z,98754.84
2018-05-16T03:19:00.303Z,98754.36
2018-05-16T03:21:30.186Z,98752.34
2018-05-16T03:24:00.056Z,98751.05
2018-05-16T03:26:29.381Z,98753.88
2018-05-16T03:28:59.276Z,98752.41
2018-05-16T03:31:29.174Z,98752.06
2018-05-16T03:33:58.763Z,98761.20
2018-05-16T03:36:28.618Z,98755.00
2018-05-16T03:38:58.460Z,98753.53
2018-05-16T03:41:28.332Z,98753.02
2018-05-16T03:43:57.573Z,98749.69
2018-05-16T03:46:27.423Z,98754.81
2018-05-16T03:48:57.069Z,98751.06
2018-05-16T03:51:26.626Z,98751.91
2018-05-16T03:53:56.213Z,98747.58
2018-05-16T03:56:25.535Z,98740.36
2018-05-16T03:59:06.375Z,98743.87
2018-05-16T04:01:46.774Z,98741.89
2018-05-16T04:04:17.637Z,98740.94
2018-05-16T04:06:47.228Z,98747.16
2018-05-16T04:09:16.782Z,98746.77
2018-05-16T04:11:46.347Z,98745.54
2018-05-16T04:14:15.895Z,98745.63
2018-05-16T04:16:45.455Z,98744.33
2018-05-16T04:19:15.340Z,98738.57
2018-05-16T04:21:45.335Z,98739.83
2018-05-16T04:24:15.219Z,98740.70
2018-05-16T04:26:45.088Z,98740.38
2018-05-16T04:29:15.067Z,98740.75
2018-05-16T04:31:44.983Z,98728.45
2018-05-16T04:34:14.828Z,98725.34
2018-05-16T04:36:44.702Z,98719.75
2018-05-16T04:39:14.557Z,98722.08
2018-05-16T04:41:44.417Z,98723.72
2018-05-16T04:44:14.282Z,98719.56
2018-05-16T04:46:44.156Z,98727.53
2018-05-16T04:49:14.002Z,98723.94
2018-05-16T04:51:43.589Z,98715.97
2018-05-16T04:54:13.550Z,98712.48
2018-05-16T04:56:43.414Z,98701.12
2018-05-16T04:59:13.261Z,98698.05
2018-05-16T05:01:42.859Z,98699.53
2018-05-16T05:04:12.757Z,98696.00
2018-05-16T05:06:42.617Z,98698.05
2018-05-16T05:09:12.235Z,98692.22
2018-05-16T05:11:42.867Z,98696.42
2018-05-16T05:14:12.815Z,98707.08
2018-05-16T05:16:42.946Z,98703.16
2018-05-16T05:19:12.808Z,98704.01
2018-05-16T05:21:42.723Z,98702.66
2018-05-16T05:24:12.775Z,98704.80
2018-05-16T05:26:43.101Z,98707.63
2018-05-16T05:29:12.676Z,98709.08
2018-05-16T05:31:42.274Z,98719.70
2018-05-16T05:34:12.116Z,98719.66
2018-05-16T05:36:41.955Z,98722.86
2018-05-16T05:39:11.827Z,98732.89
2018-05-16T05:41:41.886Z,98742.66
2018-05-16T05:44:11.509Z,98743.78
2018-05-16T05:46:41.354Z,98752.72
2018-05-16T05:49:11.245Z,98740.38
2018-05-16T05:51:41.281Z,98742.72
2018-05-16T05:54:11.032Z,98748.27
2018-05-16T05:56:40.919Z,98749.11
2018-05-16T05:59:10.785Z,98743.80
2018-05-16T06:01:40.727Z,98753.95
2018-05-16T06:04:10.895Z,98752.23
2018-05-16T06:06:40.815Z,98759.55
2018-05-16T06:09:10.722Z,98756.44
2018-05-16T06:11:40.363Z,98757.25
2018-05-16T06:14:09.970Z,98764.28
2018-05-16T06:16:39.773Z,98763.08
2018-05-16T06:19:09.352Z,98758.59
2018-05-16T06:21:39.246Z,98759.52
2018-05-16T06:24:08.839Z,98755.74
2018-05-16T06:26:38.443Z,98770.27
2018-05-16T06:29:08.024Z,98773.25
2018-05-16T06:31:37.637Z,98766.20
2018-05-16T06:34:07.633Z,98770.70
2018-05-16T06:36:37.234Z,98773.00
2018-05-16T06:39:06.568Z,98779.00
2018-05-16T06:41:36.278Z,98781.31
2018-05-16T06:44:05.873Z,98783.05
2018-05-16T06:46:35.222Z,98772.25
2018-05-16T06:49:04.687Z,98777.66
2018-05-16T06:51:34.287Z,98782.55
2018-05-16T06:54:03.906Z,98783.48
2018-05-16T06:56:33.566Z,98785.38
2018-05-16T06:59:03.331Z,98778.06
2018-05-16T07:01:33.025Z,98787.16
2018-05-16T07:04:02.697Z,98781.59
2018-05-16T07:06:32.496Z,98778.20
2018-05-16T07:09:02.097Z,98773.30
2018-05-16T07:11:31.465Z,98789.45
2018-05-16T07:14:01.123Z,98780.22
2018-05-16T07:16:30.799Z,98782.37
2018-05-16T07:19:00.399Z,98786.30
2018-05-16T07:21:30.089Z,98778.55
2018-05-16T07:23:59.683Z,98786.28
2018-05-16T07:26:29.281Z,98791.43
2018-05-16T07:28:59.104Z,98795.36
2018-05-16T07:31:28.692Z,98789.80
2018-05-16T07:33:58.308Z,98789.50
2018-05-16T07:36:27.883Z,98791.86
2018-05-16T07:38:57.463Z,98788.41
2018-05-16T07:41:27.074Z,98783.56
2018-05-16T07:43:56.685Z,98789.56
2018-05-16T07:46:26.267Z,98777.41
2018-05-16T07:48:55.831Z,98784.21
2018-05-16T07:51:25.403Z,98788.13
2018-05-16T07:53:55.172Z,98781.91
2018-05-16T07:56:24.748Z,98776.66
2018-05-16T07:58:54.333Z,98774.65
2018-05-16T08:01:23.907Z,98776.53
2018-05-16T08:03:53.497Z,98772.32
2018-05-16T08:06:23.255Z,98769.28
2018-05-16T08:08:52.829Z,98765.52
2018-05-16T08:11:22.410Z,98778.44
2018-05-16T08:13:52.170Z,98776.83
2018-05-16T08:16:21.725Z,98777.16
2018-05-16T08:18:51.320Z,98783.98
2018-05-16T08:21:21.133Z,98786.77
2018-05-16T08:23:50.745Z,98790.41
2018-05-16T08:26:20.394Z,98795.42
2018-05-16T08:28:49.976Z,98797.73
2018-05-16T08:31:19.554Z,98793.89
2018-05-16T08:33:49.167Z,98796.28
2018-05-16T08:36:18.745Z,98794.91
2018-05-16T08:38:48.432Z,98809.16
2018-05-16T08:41:18.015Z,98807.19
2018-05-16T08:43:47.684Z,98798.63
2018-05-16T08:46:17.313Z,98806.16
2018-05-16T08:48:46.967Z,98805.67
2018-05-16T08:51:16.801Z,98801.25
2018-05-16T08:53:46.355Z,98813.80
2018-05-16T08:56:16.104Z,98810.50
2018-05-16T08:58:45.687Z,98801.08
2018-05-16T09:01:15.330Z,98800.20
2018-05-16T09:03:45.075Z,98801.80
2018-05-16T09:06:14.756Z,98802.76
2018-05-16T09:08:44.334Z,98805.13
2018-05-16T09:11:13.929Z,98807.53
2018-05-16T09:13:43.509Z,98808.35
2018-05-16T09:16:13.080Z,98811.42
2018-05-16T09:18:42.673Z,98806.07
2018-05-16T09:21:12.243Z,98811.42
2018-05-16T09:23:41.810Z,98816.92
2018-05-16T09:26:11.400Z,98812.59
2018-05-16T09:28:40.977Z,98809.08
2018-05-16T09:31:10.624Z,98816.46
2018-05-16T09:33:40.215Z,98810.70
2018-05-16T09:36:09.816Z,98811.77
2018-05-16T09:38:39.387Z,98807.16
2018-05-16T09:41:09.171Z,98807.51
2018-05-16T09:43:38.749Z,98817.69
2018-05-16T09:46:08.308Z,98812.34
2018-05-16T09:48:37.897Z,98812.95
2018-05-16T09:51:07.498Z,98822.09
2018-05-16T09:53:37.063Z,98819.23
2018-05-16T09:56:07.737Z,98821.61
2018-05-16T09:58:37.298Z,98820.40
2018-05-16T10:01:06.588Z,98824.73
2018-05-16T10:03:35.947Z,98828.38
2018-05-16T10:06:05.527Z,98809.63
2018-05-16T10:08:35.117Z,98817.80
2018-05-16T10:11:04.848Z,98818.22
2018-05-16T10:13:34.407Z,98818.16
2018-05-16T10:16:04.076Z,98821.14
2018-05-16T10:18:33.643Z,98808.67
2018-05-16T10:21:03.211Z,98809.82
2018-05-16T10:23:32.949Z,98811.80
2018-05-16T10:26:02.558Z,98815.02
2018-05-16T10:28:32.228Z,98819.09
2018-05-16T10:31:01.784Z,98808.34
2018-05-16T10:33:31.336Z,98817.50
2018-05-16T10:36:00.923Z,98819.53
2018-05-16T10:38:30.486Z,98826.49
2018-05-16T10:41:00.086Z,98820.27
2018-05-16T10:43:29.770Z,98827.50
2018-05-16T10:45:59.348Z,98833.73
2018-05-16T10:48:28.937Z,98830.59
2018-05-16T10:50:58.532Z,98830.93
2018-05-16T10:53:28.107Z,98820.55
2018-05-16T10:55:57.657Z,98824.22
2018-05-16T10:58:27.234Z,98825.27
2018-05-16T11:00:56.814Z,98838.52
2018-05-16T11:03:26.661Z,98825.42
2018-05-16T11:05:56.500Z,98831.23
2018-05-16T11:08:26.135Z,98830.71
2018-05-16T11:10:55.740Z,98822.80
2018-05-16T11:13:25.215Z,98818.64
2018-05-16T11:15:54.851Z,98817.58
2018-05-16T11:18:25.230Z,98812.31
2018-05-16T11:20:54.819Z,98819.92
2018-05-16T11:23:24.677Z,98818.94
2018-05-16T11:25:54.155Z,98818.76
2018-05-16T11:28:23.820Z,98817.80
2018-05-16T11:30:53.430Z,98817.34
2018-05-16T11:33:23.123Z,98814.25
2018-05-16T11:35:52.774Z,98810.38
2018-05-16T11:38:22.350Z,98818.59
2018-05-16T11:40:52.537Z,98806.42
2018-05-16T11:43:22.107Z,98816.95
2018-05-16T11:45:51.674Z,98804.97
2018-05-16T11:48:21.458Z,98811.25
2018-05-16T11:50:51.215Z,98808.08
2018-05-16T11:53:20.789Z,98810.44
2018-05-16T11:55:50.348Z,98807.36
2018-05-16T11:58:20.058Z,98810.21
2018-05-16T12:00:49.622Z,98802.41
2018-05-16T12:03:19.203Z,98800.52
2018-05-16T12:05:48.844Z,98810.39
2018-05-16T12:08:18.671Z,98814.91
2018-05-16T12:10:48.255Z,98807.52
2018-05-16T12:13:17.834Z,98819.36
2018-05-16T12:15:47.162Z,98812.13
2018-05-16T12:18:16.969Z,98823.80
2018-05-16T12:20:46.756Z,98820.83
2018-05-16T12:23:16.344Z,98820.25
2018-05-16T12:25:45.912Z,98815.22
2018-05-16T12:28:15.491Z,98830.34
2018-05-16T12:30:45.075Z,98829.05
2018-05-16T12:33:14.428Z,98831.75
2018-05-16T12:35:43.991Z,98825.50
2018-05-16T12:38:13.564Z,98833.66
2018-05-16T12:40:43.145Z,98831.02
2018-05-16T12:43:18.160Z,98831.81
2018-05-16T12:45:47.457Z,98834.22
2018-05-16T12:48:16.741Z,98831.27
2018-05-16T12:50:46.391Z,98831.20
2018-05-16T12:53:16.677Z,98829.75
2018-05-16T12:55:46.316Z,98828.42
2018-05-16T12:58:16.078Z,98826.94
2018-05-16T13:00:45.633Z,98830.62
2018-05-16T13:03:16.875Z,98831.20
2018-05-16T13:05:46.478Z,98831.06
2018-05-16T13:08:16.319Z,98817.34
2018-05-16T13:10:45.922Z,98824.56
2018-05-16T13:13:15.492Z,98820.95
2018-05-16T13:15:45.051Z,98818.54
2018-05-16T13:18:14.864Z,98816.58
2018-05-16T13:20:44.827Z,98815.91
2018-05-16T13:23:14.591Z,98816.28
2018-05-16T13:25:43.895Z,98811.77
2018-05-16T13:28:13.532Z,98835.13
2018-05-16T13:30:43.198Z,98831.98
2018-05-16T13:33:13.041Z,98831.70
2018-05-16T13:35:42.697Z,98835.08
2018-05-16T13:38:12.403Z,98834.72
2018-05-16T13:40:41.987Z,98837.84
2018-05-16T13:43:11.556Z,98836.69
2018-05-16T13:45:41.135Z,98846.34
2018-05-16T13:48:10.682Z,98840.93
2018-05-16T13:50:40.487Z,98835.07
2018-05-16T13:53:10.068Z,98837.64
2018-05-16T13:55:39.662Z,98837.19
2018-05-16T13:58:09.276Z,98827.40
2018-05-16T14:00:39.009Z,98828.16
2018-05-16T14:03:08.590Z,98832.27
2018-05-16T14:05:38.183Z,98830.72
2018-05-16T14:08:07.527Z,98830.50
2018-05-16T14:10:37.264Z,98834.53
2018-05-16T14:13:07.108Z,98853.08
2018-05-16T14:15:36.686Z,98839.03
2018-05-16T14:18:06.286Z,98835.88
2018-05-16T14:20:35.865Z,98843.89
2018-05-16T14:23:05.449Z,98843.59
2018-05-16T14:25:35.145Z,98840.84
2018-05-16T14:28:04.471Z,98840.25
2018-05-16T14:30:34.045Z,98831.83
2018-05-16T14:33:03.743Z,98829.83
2018-05-16T14:35:33.387Z,98824.30
2018-05-16T14:38:03.054Z,98829.70
2018-05-16T14:40:32.643Z,98837.46
2018-05-16T14:43:02.316Z,98835.38
2018-05-16T14:45:32.188Z,98827.09
2018-05-16T14:48:01.762Z,98817.34
2018-05-16T14:50:31.335Z,98826.27
2018-05-16T14:53:01.001Z,98824.22
2018-05-16T14:55:30.694Z,98828.50
2018-05-16T14:58:00.303Z,98828.88
2018-05-16T15:00:29.877Z,98824.48
2018-05-16T15:02:59.647Z,98842.16
2018-05-16T15:05:29.229Z,98844.92
2018-05-16T15:07:58.787Z,98848.25
2018-05-16T15:10:29.218Z,98850.59
2018-05-16T15:12:58.768Z,98855.61
2018-05-16T15:15:28.396Z,98844.83
2018-05-16T15:17:57.973Z,98850.08
2018-05-16T15:20:27.541Z,98841.42
2018-05-16T15:22:57.114Z,98842.09
2018-05-16T15:25:26.756Z,98836.24
2018-05-16T15:27:56.476Z,98838.12
2018-05-16T15:30:26.150Z,98833.23
2018-05-16T15:32:55.719Z,98835.58
2018-05-16T15:35:25.526Z,98836.53
2018-05-16T15:37:55.150Z,98825.94
2018-05-16T15:40:24.737Z,98821.81
2018-05-16T15:42:54.335Z,98819.33
2018-05-16T15:45:24.182Z,98822.64
2018-05-16T15:47:53.753Z,98823.31
2018-05-16T15:50:23.538Z,98827.85
2018-05-16T15:52:53.108Z,98829.83
2018-05-16T15:55:22.667Z,98814.45
2018-05-16T15:57:52.257Z,98820.92
2018-05-16T16:00:21.829Z,98819.33
2018-05-16T16:02:51.619Z,98818.66
2018-05-16T16:05:21.211Z,98823.59
2018-05-16T16:07:50.987Z,98825.22
2018-05-16T16:10:21.136Z,98813.09
2018-05-16T16:12:50.767Z,98812.17
2018-05-16T16:15:20.104Z,98819.69
2018-05-16T16:17:49.692Z,98819.55
2018-05-16T16:20:19.251Z,98809.00
2018-05-16T16:22:48.872Z,98805.03
2018-05-16T16:25:18.458Z,98805.13
2018-05-16T16:27:48.634Z,98817.04
2018-05-16T16:30:18.273Z,98806.61
2018-05-16T16:32:48.037Z,98810.88
2018-05-16T16:35:17.608Z,98808.27
2018-05-16T16:37:47.180Z,98813.05
2018-05-16T16:40:16.850Z,98807.88
2018-05-16T16:42:46.523Z,98816.37
2018-05-16T16:45:16.081Z,98800.05
2018-05-16T16:47:45.675Z,98814.97
2018-05-16T16:50:15.324Z,98817.83
2018-05-16T16:52:45.035Z,98815.92
2018-05-16T16:55:14.825Z,98814.31
2018-05-16T16:57:44.410Z,98831.88
2018-05-16T17:00:14.010Z,98822.44
2018-05-16T17:02:43.659Z,98827.08
2018-05-16T17:05:13.235Z,98826.41
2018-05-16T17:07:42.943Z,98821.26
2018-05-16T17:10:13.373Z,98818.73
2018-05-16T17:12:42.991Z,98828.52
2018-05-16T17:15:12.664Z,98823.80
2018-05-16T17:17:42.442Z,98829.72
2018-05-16T17:20:12.181Z,98826.58
2018-05-16T17:22:41.936Z,98822.98
2018-05-16T17:25:11.530Z,98824.61
2018-05-16T17:27:41.120Z,98824.29
2018-05-16T17:30:10.741Z,98828.38
2018-05-16T17:32:40.317Z,98827.34
2018-05-16T17:35:09.882Z,98826.55
2018-05-16T17:37:39.453Z,98836.66
2018-05-16T17:40:09.010Z,98836.10
2018-05-16T17:42:38.579Z,98838.72
2018-05-16T17:45:08.146Z,98833.88
2018-05-16T17:47:37.724Z,98829.39
2018-05-16T17:50:07.319Z,98827.46
2018-05-16T17:52:36.962Z,98826.27
2018-05-16T17:55:06.529Z,98828.91
2018-05-16T17:57:37.106Z,98838.55
2018-05-16T18:00:06.679Z,98830.91
2018-05-16T18:02:36.273Z,98832.65
2018-05-16T18:05:05.933Z,98847.09
2018-05-16T18:07:35.512Z,98848.53
2018-05-16T18:10:05.184Z,98843.84
2018-05-16T18:12:34.866Z,98855.64
2018-05-16T18:15:18.880Z,98856.89
2018-05-16T18:17:48.444Z,98854.55
2018-05-16T18:20:18.043Z,98851.45
2018-05-16T18:22:47.636Z,98857.72
2018-05-16T18:25:17.373Z,98858.60
2018-05-16T18:27:46.936Z,98861.97
2018-05-16T18:30:16.525Z,98865.27
2018-05-16T18:32:46.181Z,98864.53
2018-05-16T18:35:15.767Z,98871.26
2018-05-16T18:37:45.374Z,98876.18
2018-05-16T18:40:14.983Z,98879.36
2018-05-16T18:42:44.644Z,98881.11
2018-05-16T18:45:14.439Z,98878.23
2018-05-16T18:47:44.289Z,98889.91
2018-05-16T18:50:13.870Z,98888.55
2018-05-16T18:52:43.443Z,98887.99
2018-05-16T18:55:13.036Z,98894.81
2018-05-16T18:57:42.599Z,98899.00
2018-05-16T19:00:12.195Z,98897.14
2018-05-16T19:02:41.795Z,98905.85
2018-05-16T19:05:11.391Z,98903.32
2018-05-16T19:07:41.033Z,98903.77
2018-05-16T19:10:10.848Z,98907.16
2018-05-16T19:12:40.411Z,98896.07
2018-05-16T19:15:09.999Z,98908.95
2018-05-16T19:17:39.567Z,98911.26
2018-05-16T19:20:09.128Z,98908.81
2018-05-16T19:22:38.399Z,98923.78
2018-05-16T19:25:08.036Z,98911.58
2018-05-16T19:27:37.615Z,98918.21
2018-05-16T19:30:07.167Z,98922.53
2018-05-16T19:32:36.744Z,98923.25
2018-05-16T19:35:06.335Z,98922.97
2018-05-16T19:37:35.897Z,98932.47
2018-05-16T19:40:05.476Z,98928.13
2018-05-16T19:42:35.036Z,98927.70
2018-05-16T19:45:04.595Z,98933.30
2018-05-16T19:47:34.270Z,98925.70
2018-05-16T19:50:03.858Z,98930.70
2018-05-16T19:52:33.450Z,98938.30
2018-05-16T19:55:03.007Z,98940.09
2018-05-16T19:57:32.577Z,98937.22
2018-05-16T20:00:02.140Z,98938.44
2018-05-16T20:02:34.417Z,98933.97
2018-05-16T20:05:03.774Z,98936.26
2018-05-16T20:07:33.330Z,98935.63
2018-05-16T20:10:02.892Z,98933.69
2018-05-16T20:12:32.463Z,98936.80
2018-05-16T20:15:02.075Z,98938.73
2018-05-16T20:17:31.697Z,98946.33
2018-05-16T20:20:01.269Z,98956.23
2018-05-16T20:22:30.602Z,98957.19
2018-05-16T20:25:00.164Z,98955.44
2018-05-16T20:27:29.751Z,98958.84
2018-05-16T20:29:59.330Z,98956.94
2018-05-16T20:32:28.980Z,98971.34
2018-05-16T20:34:59.119Z,98966.41
2018-05-16T20:37:28.518Z,98971.71
2018-05-16T20:39:58.172Z,98977.44
2018-05-16T20:42:27.858Z,98974.70
2018-05-16T20:44:57.441Z,98983.39
2018-05-16T20:47:27.110Z,98980.27
2018-05-16T20:49:56.723Z,98992.36
2018-05-16T20:52:26.833Z,98980.41
2018-05-16T20:54:56.425Z,98982.70
2018-05-16T20:57:26.090Z,98980.25
2018-05-16T20:59:55.658Z,98970.89
2018-05-16T21:02:25.230Z,98969.83
2018-05-16T21:04:54.986Z,98971.04
2018-05-16T21:07:24.567Z,98973.48
2018-05-16T21:09:54.238Z,98970.63
2018-05-16T21:12:24.654Z,98981.08
2018-05-16T21:14:54.415Z,98973.88
2018-05-16T21:17:23.998Z,98971.03
2018-05-16T21:19:53.561Z,98970.63
2018-05-16T21:22:23.146Z,98973.34
2018-05-16T21:24:52.717Z,98963.55
2018-05-16T21:27:22.351Z,98963.17
2018-05-16T21:29:51.932Z,98964.39
2018-05-16T21:32:21.514Z,98966.42
2018-05-16T21:34:51.070Z,98959.52
2018-05-16T21:37:20.660Z,98949.87
2018-05-16T21:39:50.220Z,98950.67
2018-05-16T21:42:19.831Z,98951.21
2018-05-16T21:44:49.504Z,98957.05
2018-05-16T21:47:19.124Z,98964.52
2018-05-16T21:49:48.716Z,98940.91
2018-05-16T21:52:18.288Z,98944.70
2018-05-16T21:54:47.847Z,98942.51
2018-05-16T21:57:17.431Z,98946.59
2018-05-16T21:59:47.188Z,98949.45
2018-05-16T22:02:16.769Z,98957.34
2018-05-16T22:04:46.488Z,98944.44
2018-05-16T22:07:16.072Z,98951.48
2018-05-16T22:09:45.631Z,98953.23
2018-05-16T22:12:15.270Z,98947.67
2018-05-16T22:14:44.738Z,98947.42
2018-05-16T22:17:14.314Z,98952.30
2018-05-16T22:19:43.923Z,98958.28
2018-05-16T22:22:13.513Z,98953.38
2018-05-16T22:24:43.094Z,98955.83
2018-05-16T22:27:12.690Z,98960.30
2018-05-16T22:29:42.292Z,98953.95
2018-05-16T22:32:17.229Z,98955.03
2018-05-16T22:34:52.281Z,98960.30
2018-05-16T22:37:27.311Z,98959.36
2018-05-16T22:40:02.338Z,98957.44
2018-05-16T22:42:31.130Z,98962.09
2018-05-16T22:45:04.864Z,98968.04
2018-05-16T22:47:34.449Z,98968.17
2018-05-16T22:50:04.036Z,98972.53
2018-05-16T22:52:33.759Z,98963.56
2018-05-16T22:55:03.319Z,98968.84
2018-05-16T22:57:32.898Z,98966.84
2018-05-16T23:00:02.657Z,98964.36
2018-05-16T23:02:31.831Z,98964.91
2018-05-16T23:05:01.183Z,98963.96
2018-05-16T23:07:30.770Z,98966.00
2018-05-16T23:10:00.547Z,98965.31
2018-05-16T23:12:30.237Z,98966.84
2018-05-16T23:14:59.800Z,98962.50
2018-05-16T23:17:29.504Z,98957.05
2018-05-16T23:19:59.106Z,98952.42
2018-05-16T23:22:28.692Z,98957.44
2018-05-16T23:24:58.244Z,98955.55
2018-05-16T23:27:27.631Z,98949.98
2018-05-16T23:29:57.214Z,98953.38
2018-05-16T23:32:26.776Z,98945.89
2018-05-16T23:34:56.360Z,98950.25
2018-05-16T23:37:25.937Z,98948.20
2018-05-16T23:39:55.520Z,98944.96
2018-05-16T23:42:25.113Z,98940.35
2018-05-16T23:44:54.802Z,98946.30
2018-05-16T23:47:24.404Z,98943.19
2018-05-16T23:49:53.990Z,98935.16
2018-05-16T23:52:23.612Z,98937.33
2018-05-16T23:54:53.172Z,98928.38
2018-05-16T23:57:22.737Z,98925.40
2018-05-16T23:59:52.907Z,98925.52
